Moscow, Iowa
Current Conditions -  °F | °C
As of 1:55 PM on Saturday 20 Dec 2014 (Local Time) from KMUT Reporting Station
Haze Haze  
Wind Chill: 30°   Ceiling: 1200
Heat Index: 34°   Visibility: 5mi
Dew Point: 30°   Wind: 5mph
Humidity: 87%   Direction: 140°SE
Pressure: 30.2"   Gusts: NA
Location:  41.58°N, 91.08°W
Report Text: KMUT 201955Z AUTO 14004KT 5SM HZ OVC012 01/M01 A3020 RMK AO2
Loading
Personal Weather Stations






























Interactive Weather Map New forecast layout! Learn more

10-Day Weather Forecast

Advertisements
Track Severe Weather on mobile